Time;durP1;ratioP1;P1;durP2;ratioP2;P2;SDS_P1;SDS_P2;PMS_P1;PMS_P2;Temp;Humidity;BMP_temperature;BMP_pressure;BME280_temperature;BME280_humidity;BME280_pressure;Samples;Min_cycle;Max_cycle;Signal;HPM_P1;HPM_P2
2022/06/11 00:02:05;;;;;;;2.20;2.10;;;17.90;74.20;18.30;97108.00;;;;5071747;28;20302;-79
2022/06/11 00:04:38;;;;;;;2.70;2.50;;;17.90;74.30;18.30;97100.00;;;;5077010;28;20230;-80
2022/06/11 00:07:11;;;;;;;3.50;3.00;;;17.80;74.20;18.30;97106.00;;;;5075499;28;20269;-79
2022/06/11 00:09:39;;;;;;;2.80;2.60;;;17.80;74.20;18.20;97093.00;;;;5075753;28;20238;-80
2022/06/11 00:12:08;;;;;;;2.63;2.47;;;17.80;74.20;18.20;97098.00;;;;5073439;28;20227;-79
2022/06/11 00:14:36;;;;;;;2.63;2.47;;;17.70;74.30;18.20;97100.00;;;;5080408;28;20536;-78
2022/06/11 00:17:08;;;;;;;3.03;2.77;;;17.70;74.40;18.10;97097.00;;;;5071258;28;20235;-78
2022/06/11 00:19:36;;;;;;;3.03;2.83;;;17.60;74.40;18.10;97094.00;;;;5070317;28;20230;-78
2022/06/11 00:22:06;;;;;;;3.03;2.83;;;17.60;74.50;18.10;97109.00;;;;5074600;28;20681;-80
2022/06/11 00:24:34;;;;;;;2.70;2.50;;;17.60;74.70;18.00;97098.00;;;;5073925;28;20247;-79
2022/06/11 00:27:02;;;;;;;3.07;2.87;;;17.60;74.80;18.00;97103.00;;;;5068999;28;20192;-80
2022/06/11 00:29:33;;;;;;;3.17;2.97;;;17.50;74.80;18.00;97104.00;;;;5068097;28;20641;-80
2022/06/11 00:32:01;;;;;;;2.97;2.77;;;17.50;74.80;18.00;97097.00;;;;5073661;28;20235;-80
2022/06/11 00:34:29;;;;;;;3.30;3.00;;;17.50;74.90;18.00;97098.00;;;;5068625;28;20247;-80
2022/06/11 00:36:57;;;;;;;2.47;2.37;;;17.50;74.90;17.90;97086.00;;;;5075008;28;20224;-80
2022/06/11 00:39:31;;;;;;;2.57;2.37;;;17.40;75.00;17.90;97084.00;;;;5073353;28;20227;-80
2022/06/11 00:42:03;;;;;;;3.40;3.10;;;17.40;75.00;17.90;97087.00;;;;5066881;28;20252;-80
2022/06/11 00:44:31;;;;;;;3.40;2.80;;;17.40;75.00;17.80;97081.00;;;;5074797;28;20258;-80
2022/06/11 00:47:05;;;;;;;2.83;2.63;;;17.40;75.00;17.80;97081.00;;;;5074879;28;20227;-80
2022/06/11 00:49:40;;;;;;;3.27;2.97;;;17.30;75.00;17.80;97079.00;;;;5067573;28;20643;-80
2022/06/11 00:52:20;;;;;;;3.17;2.97;;;17.30;75.00;17.80;97078.00;;;;5068485;28;20629;-80
2022/06/11 00:54:59;;;;;;;2.77;2.57;;;17.30;75.00;17.70;97077.00;;;;5073972;28;20216;-80
2022/06/11 00:57:31;;;;;;;2.90;2.70;;;17.30;75.10;17.70;97074.00;;;;5075779;28;20250;-80
2022/06/11 01:00:06;;;;;;;2.60;2.40;;;17.20;75.80;17.70;97073.00;;;;5081889;28;20539;-80
2022/06/11 01:02:34;;;;;;;2.80;2.60;;;17.20;75.10;17.70;97071.00;;;;5080485;28;20249;-80
2022/06/11 01:05:05;;;;;;;2.97;2.77;;;17.20;75.10;17.60;97070.00;;;;5080616;28;20697;-80
2022/06/11 01:08:26;;;;;;;3.17;2.87;;;17.10;75.00;17.60;97070.00;;;;5076388;28;20919;-79
2022/06/11 01:11:31;;;;;;;2.93;2.73;;;17.10;75.10;17.60;97062.00;;;;5067409;28;20234;-80
2022/06/11 01:14:23;;;;;;;3.20;2.90;;;17.10;75.10;17.50;97065.00;;;;5074042;28;20218;-80
2022/06/11 01:17:06;;;;;;;3.30;2.77;;;17.10;75.30;17.50;97064.00;;;;5054229;28;20686;-80
2022/06/11 01:20:17;;;;;;;4.70;2.70;;;17.10;75.40;17.50;97058.00;;;;5063549;28;20280;-80
2022/06/11 01:23:57;;;;;;;3.00;2.80;;;17.00;75.40;17.40;97056.00;;;;5073817;28;20641;-80
2022/06/11 01:27:01;;;;;;;2.67;2.47;;;17.00;75.40;17.40;97061.00;;;;5070853;28;20200;-79
2022/06/11 01:29:47;;;;;;;3.00;2.80;;;17.00;75.40;17.40;97060.00;;;;5068000;28;20192;-80
2022/06/11 01:32:34;;;;;;;3.27;3.07;;;16.90;75.40;17.30;97057.00;;;;5073385;28;20231;-80
2022/06/11 01:35:27;;;;;;;2.47;2.27;;;16.90;75.50;17.30;97067.00;;;;5070777;28;20243;-80
2022/06/11 01:38:03;;;;;;;2.80;2.60;;;16.90;75.50;17.30;97061.00;;;;5054277;28;20223;-80
2022/06/11 01:40:40;;;;;;;3.03;2.80;;;16.90;75.60;17.30;97062.00;;;;5063173;28;20199;-80
2022/06/11 01:43:20;;;;;;;2.63;2.43;;;16.80;75.60;17.20;97063.00;;;;5068649;28;20247;-80
2022/06/11 01:45:51;;;;;;;2.90;2.70;;;16.80;75.90;17.20;97060.00;;;;5065998;28;20199;-80
2022/06/11 01:48:24;;;;;;;3.00;2.80;;;16.80;76.10;17.20;97060.00;;;;5072779;28;20196;-80
2022/06/11 01:51:13;;;;;;;2.93;2.73;;;16.70;76.30;17.20;97055.00;;;;5073340;28;20220;-79
2022/06/11 01:54:09;;;;;;;2.97;2.77;;;16.70;76.40;17.10;97062.00;;;;5074997;28;20220;-79
2022/06/11 01:57:19;;;;;;;2.90;2.63;;;16.70;76.50;17.10;97067.00;;;;5063292;28;20200;-80
2022/06/11 02:00:09;;;;;;;2.80;2.60;;;16.70;76.40;17.10;97050.00;;;;5066075;28;20196;-80
2022/06/11 02:03:21;;;;;;;3.03;2.70;;;16.70;76.60;17.10;97067.00;;;;5074381;28;20255;-80
2022/06/11 02:06:10;;;;;;;3.83;2.83;;;16.70;76.70;17.10;97065.00;;;;5073167;28;20199;-80
2022/06/11 02:09:01;;;;;;;3.47;2.80;;;16.70;76.90;17.10;97071.00;;;;5072358;28;20677;-80
2022/06/11 02:11:36;;;;;;;3.63;2.67;;;16.70;77.00;17.20;97063.00;;;;5072698;28;20203;-79
2022/06/11 02:14:12;;;;;;;2.57;2.37;;;16.70;77.00;17.20;97065.00;;;;5072366;28;20693;-80
2022/06/11 02:16:49;;;;;;;2.53;2.37;;;16.70;77.00;17.20;97061.00;;;;5072737;28;20681;-80
2022/06/11 02:19:24;;;;;;;2.80;2.43;;;16.70;76.80;17.20;97068.00;;;;5069411;28;20657;-80
2022/06/11 02:21:56;;;;;;;3.00;2.53;;;16.70;76.80;17.20;97068.00;;;;5070390;28;20282;-79
2022/06/11 02:24:31;;;;;;;2.67;2.47;;;16.70;76.90;17.20;97060.00;;;;5070342;28;20220;-80
2022/06/11 02:27:03;;;;;;;2.57;2.40;;;16.70;76.70;17.20;97070.00;;;;5052707;28;20598;-80
2022/06/11 02:29:33;;;;;;;3.13;2.83;;;16.70;76.40;17.10;97068.00;;;;5063539;28;20253;-81
2022/06/11 02:32:08;;;;;;;2.60;2.40;;;16.70;76.20;17.10;97073.00;;;;5059862;28;20578;-81
2022/06/11 02:34:40;;;;;;;3.77;2.30;;;16.70;76.10;17.10;97069.00;;;;5065445;28;20242;-80
2022/06/11 02:37:17;;;;;;;2.63;2.43;;;16.60;75.90;17.10;97070.00;;;;5075476;28;20193;-80
2022/06/11 02:39:44;;;;;;;2.30;2.20;;;16.60;75.90;17.00;97075.00;;;;5075012;28;20231;-80
2022/06/11 02:42:17;;;;;;;2.90;2.70;;;16.60;75.90;17.00;97077.00;;;;5066914;28;20206;-80
2022/06/11 02:44:44;;;;;;;2.67;2.50;;;16.60;75.90;17.00;97080.00;;;;5069698;28;20644;-81
2022/06/11 02:47:12;;;;;;;2.93;2.30;;;16.60;76.10;17.00;97088.00;;;;5075133;28;20223;-81
2022/06/11 02:49:41;;;;;;;2.53;2.27;;;16.50;76.10;17.00;97085.00;;;;5073842;28;20231;-80
2022/06/11 02:52:13;;;;;;;2.77;2.57;;;16.50;76.00;17.00;97083.00;;;;5073655;28;20227;-80
2022/06/11 02:54:41;;;;;;;2.80;2.53;;;16.50;75.90;16.90;97087.00;;;;5070750;28;20218;-80
2022/06/11 02:57:14;;;;;;;4.53;2.33;;;16.50;75.80;16.90;97094.00;;;;5073875;28;20683;-80
2022/06/11 02:59:42;;;;;;;2.80;2.27;;;16.40;75.80;16.90;97097.00;;;;5073906;28;20705;-80
2022/06/11 03:02:10;;;;;;;3.00;2.80;;;16.40;75.80;16.90;97094.00;;;;5071275;28;20196;-81
2022/06/11 03:04:40;;;;;;;3.10;2.67;;;16.40;75.80;16.80;97101.00;;;;5073713;28;20235;-80
2022/06/11 03:07:08;;;;;;;2.40;2.30;;;16.40;75.80;16.80;97096.00;;;;5073577;28;20203;-80
2022/06/11 03:09:38;;;;;;;2.57;2.30;;;16.30;75.80;16.80;97101.00;;;;5072487;28;20192;-80
2022/06/11 03:12:08;;;;;;;2.23;2.03;;;16.30;75.80;16.80;97100.00;;;;5070303;28;20206;-81
2022/06/11 03:14:36;;;;;;;2.37;2.27;;;16.30;75.90;16.70;97094.00;;;;5072510;28;20265;-80
2022/06/11 03:17:05;;;;;;;2.80;2.23;;;16.30;75.90;16.70;97097.00;;;;5073041;28;20231;-81
2022/06/11 03:19:33;;;;;;;3.00;2.20;;;16.20;75.90;16.70;97103.00;;;;5067506;28;20195;-81
2022/06/11 03:22:02;;;;;;;3.00;2.40;;;16.20;76.00;16.60;97096.00;;;;5057703;28;20192;-80
2022/06/11 03:24:29;;;;;;;2.37;1.90;;;16.20;75.90;16.60;97098.00;;;;5069595;28;20231;-80
2022/06/11 03:26:57;;;;;;;2.53;2.33;;;16.20;76.00;16.60;97105.00;;;;5071236;28;20224;-81
2022/06/11 03:29:26;;;;;;;2.60;2.40;;;16.10;76.00;16.60;97108.00;;;;5072848;28;20231;-81
2022/06/11 03:31:55;;;;;;;2.67;2.40;;;16.10;76.00;16.50;97103.00;;;;5064872;28;20192;-81
2022/06/11 03:34:23;;;;;;;3.03;2.37;;;16.10;76.10;16.50;97110.00;;;;5068278;28;20224;-80
2022/06/11 03:36:52;;;;;;;2.47;2.27;;;16.10;76.10;16.50;97113.00;;;;5073412;28;20227;-81
2022/06/11 03:39:22;;;;;;;2.33;2.20;;;16.00;76.10;16.50;97112.00;;;;5071592;28;20202;-81
2022/06/11 03:41:49;;;;;;;2.40;2.20;;;16.00;76.30;16.50;97114.00;;;;5066429;28;20223;-81
2022/06/11 03:44:16;;;;;;;4.10;2.30;;;16.00;76.40;16.50;97114.00;;;;5072432;28;20396;-81
2022/06/11 03:46:44;;;;;;;2.70;2.50;;;16.00;76.60;16.50;97121.00;;;;5072740;28;20630;-80
2022/06/11 03:49:12;;;;;;;2.30;2.10;;;16.00;76.80;16.50;97117.00;;;;5073040;28;20200;-80
2022/06/11 03:51:40;;;;;;;2.77;2.10;;;16.00;76.80;16.50;97114.00;;;;5055022;28;20220;-81
2022/06/11 03:54:08;;;;;;;3.43;2.60;;;16.00;76.90;16.50;97122.00;;;;5074997;28;20220;-81
2022/06/11 03:56:38;;;;;;;2.63;2.43;;;16.00;76.90;16.50;97121.00;;;;5066979;28;20204;-81
2022/06/11 03:59:08;;;;;;;3.00;2.80;;;16.00;77.00;16.50;97127.00;;;;5074418;28;20623;-81
2022/06/11 04:01:35;;;;;;;3.37;2.57;;;16.00;77.00;16.50;97122.00;;;;5074889;28;20240;-80
2022/06/11 04:04:07;;;;;;;3.00;2.60;;;16.00;77.20;16.50;97130.00;;;;5076040;28;20308;-81
2022/06/11 04:06:38;;;;;;;3.27;2.73;;;16.00;77.40;16.50;97123.00;;;;5076446;28;20212;-81
2022/06/11 04:09:11;;;;;;;2.97;2.77;;;16.00;77.50;16.60;97126.00;;;;5072642;28;20245;-81
2022/06/11 04:11:40;;;;;;;2.73;2.53;;;16.00;77.60;16.60;97141.00;;;;5072987;28;20283;-81
2022/06/11 04:14:08;;;;;;;2.80;2.60;;;16.00;77.80;16.60;97135.00;;;;5074893;28;20211;-81
2022/06/11 04:16:41;;;;;;;3.13;2.93;;;16.10;78.00;16.60;97142.00;;;;5068354;28;20228;-80
2022/06/11 04:19:15;;;;;;;3.00;2.80;;;16.10;78.20;16.60;97138.00;;;;5075566;28;20198;-80
2022/06/11 04:21:42;;;;;;;3.00;2.80;;;16.10;78.40;16.70;97150.00;;;;5054833;28;20197;-81
2022/06/11 04:24:09;;;;;;;2.93;2.73;;;16.10;78.50;16.70;97144.00;;;;5059708;28;20269;-81
2022/06/11 04:26:42;;;;;;;3.20;3.00;;;16.20;78.80;16.70;97144.00;;;;5061488;28;20259;-80
2022/06/11 04:29:15;;;;;;;3.00;2.80;;;16.20;78.80;16.80;97144.00;;;;5074784;28;20184;-81
2022/06/11 04:31:43;;;;;;;3.07;2.87;;;16.20;79.00;16.80;97138.00;;;;5075130;28;20207;-80
2022/06/11 04:34:12;;;;;;;3.20;3.00;;;16.30;79.20;16.80;97140.00;;;;5073989;28;20904;-81
2022/06/11 04:36:40;;;;;;;3.77;3.47;;;16.30;79.30;16.90;97145.00;;;;5074526;28;20231;-80
2022/06/11 04:39:10;;;;;;;3.27;3.03;;;16.30;79.50;16.90;97147.00;;;;5074812;28;20235;-80
2022/06/11 04:41:37;;;;;;;3.60;3.30;;;16.40;79.60;16.90;97145.00;;;;5074774;28;20541;-81
2022/06/11 04:44:07;;;;;;;3.63;3.33;;;16.40;79.60;17.00;97144.00;;;;5074515;28;20227;-81
2022/06/11 04:46:35;;;;;;;3.80;3.50;;;16.40;79.70;17.00;97144.00;;;;5074404;28;20626;-81
2022/06/11 04:49:03;;;;;;;4.03;3.63;;;16.50;79.80;17.10;97148.00;;;;5074842;28;20234;-81
2022/06/11 04:51:31;;;;;;;3.90;3.60;;;16.50;79.90;17.10;97142.00;;;;5074615;28;20244;-81
2022/06/11 04:53:58;;;;;;;6.27;3.57;;;16.50;80.00;17.10;97149.00;;;;5074827;28;20736;-80
2022/06/11 04:56:29;;;;;;;3.70;3.50;;;16.60;80.20;17.20;97154.00;;;;5073474;28;20235;-81
2022/06/11 04:58:57;;;;;;;3.47;3.27;;;16.70;80.40;17.20;97150.00;;;;5074455;28;20235;-81
2022/06/11 05:01:27;;;;;;;3.87;3.57;;;16.70;80.40;17.30;97154.00;;;;5074590;28;20231;-81
2022/06/11 05:03:55;;;;;;;3.70;3.33;;;16.70;80.40;17.30;97151.00;;;;5058833;28;20263;-81
2022/06/11 05:06:27;;;;;;;3.90;3.60;;;16.80;80.40;17.40;97158.00;;;;5072663;28;20677;-80
2022/06/11 05:08:55;;;;;;;3.63;3.43;;;16.80;80.50;17.40;97158.00;;;;5055225;28;20581;-81
2022/06/11 05:11:22;;;;;;;4.37;3.30;;;16.90;80.50;17.50;97154.00;;;;5061014;28;20210;-81
2022/06/11 05:13:50;;;;;;;3.87;3.50;;;16.90;80.60;17.60;97158.00;;;;5074770;28;20234;-81
2022/06/11 05:16:21;;;;;;;3.90;3.60;;;17.00;80.60;17.60;97160.00;;;;5057940;28;20654;-80
2022/06/11 05:18:50;;;;;;;3.90;3.60;;;17.00;80.60;17.70;97155.00;;;;5074586;28;20198;-80
2022/06/11 05:21:19;;;;;;;3.80;3.50;;;17.10;80.60;17.70;97164.00;;;;5074272;28;20642;-81
2022/06/11 05:23:46;;;;;;;4.20;3.90;;;17.10;80.60;17.80;97168.00;;;;5074159;28;20303;-81
2022/06/11 05:26:17;;;;;;;3.63;3.40;;;17.20;80.60;17.90;97160.00;;;;5059041;28;20296;-80
2022/06/11 05:28:45;;;;;;;3.63;3.33;;;17.20;80.60;17.90;97168.00;;;;5073959;28;20234;-81
2022/06/11 05:31:13;;;;;;;3.17;2.87;;;17.30;80.70;18.00;97165.00;;;;5072483;28;20224;-81
2022/06/11 05:33:40;;;;;;;3.93;3.27;;;17.40;80.80;18.00;97166.00;;;;5073627;28;20552;-81
2022/06/11 05:36:12;;;;;;;4.13;3.83;;;17.40;80.70;18.10;97166.00;;;;5073188;28;20227;-81
2022/06/11 05:38:39;;;;;;;4.03;3.63;;;17.50;80.80;18.20;97165.00;;;;5063207;28;20283;-81
2022/06/11 05:41:06;;;;;;;3.40;3.10;;;17.60;80.80;18.20;97173.00;;;;5073158;28;20287;-81
2022/06/11 05:43:33;;;;;;;3.53;3.27;;;17.60;80.80;18.30;97166.00;;;;5074124;28;20234;-80
2022/06/11 05:46:06;;;;;;;3.30;3.00;;;17.60;80.80;18.30;97170.00;;;;5075666;28;20262;-81
2022/06/11 05:48:38;;;;;;;3.30;3.00;;;17.70;80.90;18.40;97171.00;;;;5060836;28;20601;-81
2022/06/11 05:51:07;;;;;;;3.00;2.80;;;17.80;80.80;18.50;97169.00;;;;5073949;28;20185;-81
2022/06/11 05:53:38;;;;;;;3.37;3.07;;;17.80;80.80;18.60;97166.00;;;;5074629;28;20270;-80
2022/06/11 05:56:07;;;;;;;3.50;3.20;;;17.90;80.80;18.60;97172.00;;;;5074661;28;20223;-80
2022/06/11 05:58:41;;;;;;;3.17;2.97;;;18.00;80.70;18.70;97167.00;;;;5076711;28;20870;-81
2022/06/11 06:01:09;;;;;;;3.20;2.90;;;18.10;80.80;18.80;97172.00;;;;5077875;28;20219;-80
2022/06/11 06:03:36;;;;;;;2.97;2.77;;;18.10;80.70;18.80;97174.00;;;;5074425;28;20220;-80
2022/06/11 06:06:04;;;;;;;3.30;3.00;;;18.20;80.70;18.90;97175.00;;;;5068259;28;20246;-81
2022/06/11 06:08:31;;;;;;;2.83;2.63;;;18.30;80.80;19.00;97176.00;;;;5074707;28;20231;-81
2022/06/11 06:11:00;;;;;;;3.60;3.30;;;18.40;80.80;19.00;97168.00;;;;5073630;28;20287;-81
2022/06/11 06:16:12;;;;;;;3.27;2.90;;;18.50;80.60;19.20;97169.00;;;;5072318;28;20219;-81
2022/06/11 06:18:39;;;;;;;3.37;3.07;;;18.60;80.60;19.30;97172.00;;;;5073460;28;20215;-81
2022/06/11 06:21:07;;;;;;;2.67;2.50;;;18.60;80.50;19.30;97178.00;;;;5072280;28;20224;-80
2022/06/11 06:23:35;;;;;;;2.80;2.60;;;18.70;80.40;19.40;97176.00;;;;5073697;28;20303;-80
2022/06/11 06:26:04;;;;;;;3.03;2.83;;;18.80;80.50;19.50;97180.00;;;;5072851;28;20192;-80
2022/06/11 06:28:32;;;;;;;3.23;2.93;;;18.90;80.60;19.60;97181.00;;;;5073489;28;20669;-80
2022/06/11 06:31:00;;;;;;;2.97;2.77;;;19.00;80.40;19.70;97182.00;;;;5072676;28;20200;-80
2022/06/11 06:33:30;;;;;;;3.10;2.80;;;19.00;80.20;19.80;97178.00;;;;5073225;28;20248;-81
2022/06/11 06:35:57;;;;;;;3.17;2.93;;;19.10;80.40;19.90;97182.00;;;;5072871;28;20200;-80
2022/06/11 06:38:25;;;;;;;2.60;2.40;;;19.20;80.20;20.00;97179.00;;;;5072765;28;20288;-81
2022/06/11 06:40:53;;;;;;;2.50;2.40;;;19.30;80.10;20.10;97178.00;;;;5062986;28;21988;-81
2022/06/11 06:43:22;;;;;;;2.67;2.30;;;19.40;80.20;20.10;97186.00;;;;5062999;28;20234;-81
2022/06/11 06:45:49;;;;;;;2.70;2.60;;;19.50;80.30;20.20;97188.00;;;;5072198;28;20236;-81
2022/06/11 06:48:17;;;;;;;2.87;2.30;;;19.60;80.90;20.30;97189.00;;;;5073485;28;20265;-81
2022/06/11 06:50:44;;;;;;;3.07;2.77;;;19.60;80.10;20.40;97183.00;;;;5071656;28;20224;-81
2022/06/11 06:53:12;;;;;;;2.83;2.63;;;19.70;79.90;20.50;97183.00;;;;5073182;28;20589;-80
2022/06/11 06:55:39;;;;;;;2.90;2.70;;;19.80;79.70;20.60;97190.00;;;;5072159;28;20624;-81
2022/06/11 06:58:07;;;;;;;2.70;2.50;;;19.90;79.80;20.70;97187.00;;;;5072880;28;20288;-80
2022/06/11 07:00:36;;;;;;;2.60;2.40;;;20.00;79.80;20.80;97194.00;;;;5065253;28;20200;-81
2022/06/11 07:03:03;;;;;;;2.30;2.20;;;20.10;80.00;21.00;97196.00;;;;5072773;28;20198;-81
2022/06/11 07:05:30;;;;;;;2.67;2.47;;;20.30;80.40;21.20;97189.00;;;;5068878;28;20319;-81
2022/06/11 07:07:57;;;;;;;2.57;2.23;;;20.40;80.40;21.50;97190.00;;;;5052281;28;20271;-80
2022/06/11 07:10:26;;;;;;;2.17;2.07;;;20.60;80.10;21.70;97200.00;;;;5063282;28;20294;-80
2022/06/11 07:12:53;;;;;;;3.13;2.43;;;20.80;80.20;21.90;97202.00;;;;5073345;28;20616;-80
2022/06/11 07:15:21;;;;;;;2.40;2.20;;;21.00;80.30;22.10;97198.00;;;;5071850;28;20728;-80
2022/06/11 07:17:56;;;;;;;2.13;2.03;;;21.20;80.00;22.30;97201.00;;;;5072653;28;20263;-80
2022/06/11 07:20:30;;;;;;;2.03;1.83;;;21.40;79.40;22.60;97198.00;;;;5072727;28;20275;-80
2022/06/11 07:23:02;;;;;;;2.10;1.90;;;21.60;79.10;22.80;97199.00;;;;5073399;28;20188;-80
2022/06/11 07:25:31;;;;;;;2.03;1.93;;;21.70;79.10;23.00;97202.00;;;;5071989;28;20283;-80
2022/06/11 07:28:07;;;;;;;3.27;2.20;;;21.90;78.80;23.20;97198.00;;;;5075570;28;20564;-80
2022/06/11 07:30:39;;;;;;;3.37;2.00;;;22.10;78.30;23.40;97202.00;;;;5077059;28;20436;-81
2022/06/11 07:33:14;;;;;;;1.83;1.70;;;22.30;78.00;23.70;97199.00;;;;5076448;28;20296;-80
2022/06/11 07:35:42;;;;;;;1.93;1.83;;;22.50;77.40;23.90;97201.00;;;;5076021;28;20202;-81
2022/06/11 07:38:13;;;;;;;1.90;1.80;;;22.70;77.00;24.10;97202.00;;;;5080764;28;20234;-81
2022/06/11 07:40:42;;;;;;;1.80;1.70;;;22.90;75.40;24.30;97195.00;;;;5078494;28;20289;-81
2022/06/11 07:43:09;;;;;;;2.10;2.00;;;23.00;75.60;24.50;97197.00;;;;5078640;28;20199;-80
2022/06/11 07:45:40;;;;;;;1.83;1.53;;;23.20;75.40;24.70;97199.00;;;;5070840;28;20296;-80
2022/06/11 07:48:11;;;;;;;2.90;1.93;;;23.40;75.30;24.90;97198.00;;;;5069858;28;20267;-80
2022/06/11 07:50:42;;;;;;;1.97;1.73;;;23.60;75.00;25.10;97203.00;;;;5070804;28;20196;-80
2022/06/11 07:53:10;;;;;;;1.80;1.70;;;23.70;74.70;25.30;97205.00;;;;5079452;28;20184;-81
2022/06/11 07:55:40;;;;;;;3.13;1.80;;;23.90;74.40;25.50;97202.00;;;;5076749;28;20256;-80
2022/06/11 07:58:09;;;;;;;2.17;1.97;;;24.10;72.90;25.70;97200.00;;;;5080157;28;20192;-80
2022/06/11 08:00:39;;;;;;;1.60;1.50;;;24.30;73.20;25.90;97205.00;;;;5078226;28;20196;-80
2022/06/11 08:03:08;;;;;;;2.40;1.40;;;24.40;72.50;26.10;97201.00;;;;5074776;28;20219;-80
2022/06/11 08:05:36;;;;;;;2.00;1.80;;;24.60;72.40;26.30;97206.00;;;;5078637;28;20262;-80
2022/06/11 08:08:07;;;;;;;1.73;1.60;;;24.80;72.20;26.50;97208.00;;;;5074330;28;20196;-80
2022/06/11 08:10:36;;;;;;;1.53;1.43;;;24.90;70.90;26.70;97204.00;;;;5076406;28;20275;-80
2022/06/11 08:13:03;;;;;;;1.60;1.50;;;25.10;71.00;26.90;97212.00;;;;5075649;28;20671;-80
2022/06/11 08:15:31;;;;;;;1.60;1.50;;;25.30;70.00;27.10;97208.00;;;;5077339;28;20222;-80
2022/06/11 08:17:59;;;;;;;1.60;1.50;;;25.40;70.00;27.40;97213.00;;;;5087525;28;20193;-80
2022/06/11 08:20:34;;;;;;;1.90;1.40;;;25.60;70.40;27.70;97213.00;;;;5077583;28;20606;-81
2022/06/11 08:23:02;;;;;;;1.67;1.43;;;25.80;67.60;28.10;97214.00;;;;5077754;28;20203;-80
2022/06/11 08:25:30;;;;;;;1.47;1.37;;;26.00;69.40;28.40;97211.00;;;;5066053;28;20227;-80
2022/06/11 08:27:58;;;;;;;1.45;1.35;;;26.30;69.70;28.80;97222.00;;;;5073471;28;20192;-81
2022/06/11 08:30:28;;;;;;;2.03;1.40;;;26.50;69.80;29.10;97224.00;;;;5077383;28;20282;-81
2022/06/11 08:32:55;;;;;;;2.15;1.40;;;26.70;68.20;29.40;97230.00;;;;5076649;28;20724;-81
2022/06/11 08:35:27;;;;;;;2.13;1.45;;;26.90;67.10;29.70;97234.00;;;;5077896;28;20216;-81
2022/06/11 08:37:56;;;;;;;1.30;1.30;;;27.20;65.30;29.80;97221.00;;;;5077423;28;20196;-81
2022/06/11 08:40:33;;;;;;;1.10;1.10;;;27.40;64.70;29.90;97227.00;;;;5077228;28;20220;-80
2022/06/11 08:43:04;;;;;;;1.40;1.30;;;27.60;63.40;30.10;97227.00;;;;5077376;28;20657;-81
2022/06/11 08:45:42;;;;;;;1.70;1.35;;;27.80;63.30;30.20;97221.00;;;;5080638;28;20220;-80
2022/06/11 08:48:25;;;;;;;1.60;1.38;;;28.00;61.00;30.40;97226.00;;;;5068277;28;20188;-80
2022/06/11 08:51:16;;;;;;;1.30;1.30;;;28.20;61.10;30.60;97222.00;;;;5062867;28;20208;-80
2022/06/11 08:53:45;;;;;;;1.35;1.15;;;28.30;61.00;30.70;97222.00;;;;5071052;28;20222;-81
2022/06/11 08:56:21;;;;;;;1.20;1.10;;;28.40;59.50;30.90;97220.00;;;;5082827;28;20287;-80
2022/06/11 08:59:13;;;;;;;1.02;1.00;;;28.60;59.50;31.10;97222.00;;;;5065775;28;20195;-80
2022/06/11 09:01:57;;;;;;;1.13;1.00;;;28.70;58.10;31.30;97224.00;;;;5072906;28;20224;-80
2022/06/11 09:04:51;;;;;;;1.15;1.05;;;28.90;57.80;31.50;97226.00;;;;5083675;28;20220;-80
2022/06/11 09:07:45;;;;;;;1.35;1.20;;;29.10;57.50;31.70;97224.00;;;;5078040;28;20257;-80
2022/06/11 09:10:41;;;;;;;1.48;1.38;;;29.40;58.10;32.00;97222.00;;;;5087325;28;20274;-80
2022/06/11 09:13:53;;;;;;;1.45;1.25;;;29.60;57.90;32.30;97226.00;;;;5102483;28;20195;-80
2022/06/11 09:16:43;;;;;;;4.85;1.75;;;29.90;57.50;32.60;97227.00;;;;5078121;28;20207;-80
2022/06/11 09:19:34;;;;;;;1.33;1.02;;;30.20;57.20;32.70;97223.00;;;;5072382;28;20252;-80
2022/06/11 09:22:18;;;;;;;0.98;0.98;;;30.50;57.10;32.70;97220.00;;;;5081515;28;20192;-80
2022/06/11 09:25:16;;;;;;;1.00;1.00;;;30.70;56.20;32.70;97231.00;;;;5080706;28;20310;-80
2022/06/11 09:27:55;;;;;;;0.95;0.95;;;30.80;55.20;32.80;97227.00;;;;5082223;28;20274;-80
2022/06/11 09:30:30;;;;;;;1.08;0.93;;;30.90;55.60;32.80;97225.00;;;;5064462;28;20568;-80
2022/06/11 09:33:05;;;;;;;1.05;0.98;;;31.00;55.80;32.70;97230.00;;;;5079679;28;20234;-80
2022/06/11 09:35:40;;;;;;;1.05;0.90;;;31.00;54.90;32.70;97225.00;;;;5081233;28;20184;-80
2022/06/11 09:38:22;;;;;;;0.68;0.68;;;31.00;54.10;32.70;97227.00;;;;5080978;28;20196;-80
2022/06/11 09:40:59;;;;;;;0.88;0.77;;;31.10;54.20;32.80;97225.00;;;;5081122;28;20267;-80
2022/06/11 09:43:41;;;;;;;1.27;0.85;;;31.10;53.20;32.90;97220.00;;;;5079008;28;20252;-80
2022/06/11 09:46:23;;;;;;;0.75;0.70;;;31.30;52.10;33.10;97218.00;;;;5080301;28;20358;-80
2022/06/11 09:49:12;;;;;;;0.90;0.90;;;31.40;51.70;33.20;97224.00;;;;5081167;28;20227;-80
2022/06/11 09:51:50;;;;;;;0.55;0.55;;;31.60;52.10;33.30;97222.00;;;;5080038;28;20184;-80
2022/06/11 09:54:40;;;;;;;0.70;0.70;;;31.70;52.30;33.50;97226.00;;;;5079807;28;20224;-80
2022/06/11 09:57:29;;;;;;;0.75;0.75;;;31.90;51.20;33.60;97221.00;;;;5077376;28;20202;-80
2022/06/11 10:00:07;;;;;;;0.82;0.70;;;32.00;49.90;33.70;97220.00;;;;5074908;28;20232;-80
2022/06/11 10:02:44;;;;;;;1.10;0.80;;;32.30;51.30;33.70;97225.00;;;;5075360;28;20282;-80
2022/06/11 10:05:21;;;;;;;0.70;0.70;;;32.40;51.60;33.80;97228.00;;;;5076711;28;20310;-80
2022/06/11 10:07:59;;;;;;;0.68;0.68;;;32.50;50.10;33.80;97219.00;;;;5079181;28;20204;-80
2022/06/11 10:10:31;;;;;;;0.70;0.70;;;32.60;50.20;33.90;97230.00;;;;5069763;28;20220;-80
2022/06/11 10:13:09;;;;;;;2.83;1.30;;;32.80;51.00;34.00;97224.00;;;;5076884;28;20196;-80
2022/06/11 10:15:42;;;;;;;1.05;0.80;;;32.90;49.50;34.10;97227.00;;;;5072085;28;20202;-80
2022/06/11 10:18:18;;;;;;;0.82;0.82;;;33.00;48.50;34.20;97233.00;;;;5078232;28;20199;-80
2022/06/11 10:20:51;;;;;;;0.50;0.50;;;33.10;49.00;34.30;97233.00;;;;5078159;28;20218;-80
2022/06/11 10:23:32;;;;;;;2.13;0.82;;;33.20;48.00;34.30;97226.00;;;;5077828;28;20196;-80
2022/06/11 10:26:08;;;;;;;0.75;0.75;;;33.30;48.10;34.40;97234.00;;;;5078713;28;20247;-80
2022/06/11 10:28:44;;;;;;;1.65;0.90;;;33.40;48.20;34.50;97228.00;;;;5062109;28;20231;-80
2022/06/11 10:31:19;;;;;;;0.80;0.80;;;33.40;47.80;34.40;97227.00;;;;5058141;28;20227;-80
2022/06/11 10:33:56;;;;;;;0.60;0.60;;;33.40;46.70;34.30;97221.00;;;;5060592;28;20250;-80
2022/06/11 10:36:30;;;;;;;0.70;0.70;;;33.40;45.70;34.10;97230.00;;;;5078307;28;20894;-80
2022/06/11 10:39:03;;;;;;;0.50;0.50;;;33.30;45.60;33.90;97227.00;;;;5070899;28;20923;-80
2022/06/11 10:41:38;;;;;;;0.60;0.60;;;33.20;45.30;33.60;97227.00;;;;5078056;28;20248;-80
2022/06/11 10:44:30;;;;;;;0.95;0.60;;;33.00;44.90;33.30;97224.00;;;;5078459;28;20223;-80
2022/06/11 10:46:59;;;;;;;2.10;1.38;;;32.70;44.50;32.90;97218.00;;;;5078593;28;20458;-80
2022/06/11 10:49:29;;;;;;;1.88;0.98;;;32.40;45.90;32.70;97216.00;;;;5077568;28;20227;-80
2022/06/11 10:52:06;;;;;;;0.82;0.75;;;32.20;45.90;32.50;97216.00;;;;5076682;28;20224;-80
2022/06/11 10:54:33;;;;;;;0.80;0.80;;;31.90;45.90;32.30;97224.00;;;;5074078;28;20311;-80
2022/06/11 10:57:12;;;;;;;0.60;0.60;;;31.70;45.90;32.10;97212.00;;;;5057318;28;20196;-80
2022/06/11 10:59:46;;;;;;;0.75;0.75;;;31.50;45.90;31.90;97203.00;;;;5058492;28;20212;-80
2022/06/11 11:02:30;;;;;;;0.63;0.63;;;31.30;45.70;31.70;97209.00;;;;5080709;28;20195;-80
2022/06/11 11:05:03;;;;;;;0.75;0.73;;;31.10;45.30;31.50;97199.00;;;;5082504;28;22635;-80
2022/06/11 11:07:47;;;;;;;0.80;0.80;;;30.90;46.10;31.30;97202.00;;;;5081770;28;20192;-81
2022/06/11 11:10:45;;;;;;;0.70;0.70;;;30.70;45.00;31.00;97200.00;;;;5081796;28;20229;-80
2022/06/11 11:13:38;;;;;;;0.60;0.60;;;30.50;45.20;30.80;97204.00;;;;5080856;28;20200;-79
2022/06/11 11:16:21;;;;;;;0.70;0.63;;;30.30;45.10;30.60;97201.00;;;;5081459;28;20216;-80
2022/06/11 11:19:03;;;;;;;0.50;0.50;;;30.10;46.30;30.50;97193.00;;;;5081036;28;20192;-80
2022/06/11 11:21:35;;;;;;;0.68;0.68;;;29.90;46.20;30.30;97198.00;;;;5080751;28;20184;-80
2022/06/11 11:24:12;;;;;;;0.57;0.57;;;29.80;47.20;30.20;97192.00;;;;5080221;28;20249;-80
2022/06/11 11:26:45;;;;;;;0.70;0.70;;;29.60;47.80;30.10;97194.00;;;;5060214;28;20692;-80
2022/06/11 11:29:19;;;;;;;0.75;0.75;;;29.40;48.60;30.00;97197.00;;;;5059902;28;20555;-80